sensor_id;sensor_type;location;lat;lon;timestamp;P1;durP1;ratioP1;P2;durP2;ratioP2
73487;SDS011;61721;42.206;25.320;2023-01-19T00:00:39;18.27;;;3.42;;
73487;SDS011;61721;42.206;25.320;2023-01-19T00:03:07;18.10;;;3.28;;
73487;SDS011;61721;42.206;25.320;2023-01-19T00:05:40;19.40;;;3.83;;
73487;SDS011;61721;42.206;25.320;2023-01-19T00:08:08;22.88;;;4.38;;
73487;SDS011;61721;42.206;25.320;2023-01-19T00:10:40;15.07;;;3.25;;
73487;SDS011;61721;42.206;25.320;2023-01-19T00:13:07;18.42;;;3.88;;
73487;SDS011;61721;42.206;25.320;2023-01-19T00:15:34;16.98;;;3.35;;
73487;SDS011;61721;42.206;25.320;2023-01-19T00:18:02;18.55;;;3.35;;
73487;SDS011;61721;42.206;25.320;2023-01-19T00:20:30;19.77;;;3.63;;
73487;SDS011;61721;42.206;25.320;2023-01-19T00:22:59;18.00;;;3.00;;
73487;SDS011;61721;42.206;25.320;2023-01-19T00:25:27;17.38;;;3.55;;
73487;SDS011;61721;42.206;25.320;2023-01-19T00:27:54;17.02;;;3.67;;
73487;SDS011;61721;42.206;25.320;2023-01-19T00:30:21;16.55;;;3.22;;
73487;SDS011;61721;42.206;25.320;2023-01-19T00:32:48;22.77;;;3.55;;
73487;SDS011;61721;42.206;25.320;2023-01-19T00:35:15;24.35;;;3.70;;
73487;SDS011;61721;42.206;25.320;2023-01-19T00:37:45;16.63;;;3.90;;
73487;SDS011;61721;42.206;25.320;2023-01-19T00:40:12;20.38;;;3.83;;
73487;SDS011;61721;42.206;25.320;2023-01-19T00:42:40;14.52;;;2.50;;
73487;SDS011;61721;42.206;25.320;2023-01-19T00:45:08;22.15;;;4.38;;
73487;SDS011;61721;42.206;25.320;2023-01-19T00:47:37;19.80;;;3.38;;
73487;SDS011;61721;42.206;25.320;2023-01-19T00:50:05;14.75;;;2.95;;
73487;SDS011;61721;42.206;25.320;2023-01-19T00:52:33;23.77;;;3.42;;
73487;SDS011;61721;42.206;25.320;2023-01-19T00:55:01;27.40;;;4.00;;
73487;SDS011;61721;42.206;25.320;2023-01-19T00:57:28;18.52;;;4.00;;
73487;SDS011;61721;42.206;25.320;2023-01-19T00:59:55;17.83;;;3.20;;
73487;SDS011;61721;42.206;25.320;2023-01-19T01:02:23;22.45;;;4.75;;
73487;SDS011;61721;42.206;25.320;2023-01-19T01:04:50;24.80;;;3.70;;
73487;SDS011;61721;42.206;25.320;2023-01-19T01:07:19;19.10;;;3.33;;
73487;SDS011;61721;42.206;25.320;2023-01-19T01:09:46;21.58;;;3.47;;
73487;SDS011;61721;42.206;25.320;2023-01-19T01:12:15;25.55;;;4.85;;
73487;SDS011;61721;42.206;25.320;2023-01-19T01:14:42;15.65;;;3.72;;
73487;SDS011;61721;42.206;25.320;2023-01-19T01:17:09;15.85;;;3.10;;
73487;SDS011;61721;42.206;25.320;2023-01-19T01:19:38;16.40;;;3.60;;
73487;SDS011;61721;42.206;25.320;2023-01-19T01:22:05;21.17;;;3.65;;
73487;SDS011;61721;42.206;25.320;2023-01-19T01:24:33;21.77;;;4.32;;
73487;SDS011;61721;42.206;25.320;2023-01-19T01:27:01;22.98;;;3.42;;
73487;SDS011;61721;42.206;25.320;2023-01-19T01:29:29;16.52;;;3.17;;
73487;SDS011;61721;42.206;25.320;2023-01-19T01:31:59;21.45;;;3.70;;
73487;SDS011;61721;42.206;25.320;2023-01-19T01:34:26;19.20;;;3.50;;
73487;SDS011;61721;42.206;25.320;2023-01-19T01:36:54;19.77;;;4.15;;
73487;SDS011;61721;42.206;25.320;2023-01-19T01:39:21;17.63;;;3.83;;
73487;SDS011;61721;42.206;25.320;2023-01-19T01:41:48;25.52;;;3.55;;
73487;SDS011;61721;42.206;25.320;2023-01-19T01:47:16;21.77;;;3.45;;
73487;SDS011;61721;42.206;25.320;2023-01-19T01:49:47;19.05;;;3.95;;
73487;SDS011;61721;42.206;25.320;2023-01-19T01:52:16;18.70;;;3.15;;
73487;SDS011;61721;42.206;25.320;2023-01-19T01:54:45;13.85;;;3.45;;
73487;SDS011;61721;42.206;25.320;2023-01-19T01:57:12;22.00;;;3.45;;
73487;SDS011;61721;42.206;25.320;2023-01-19T01:59:40;24.60;;;3.55;;
73487;SDS011;61721;42.206;25.320;2023-01-19T02:02:13;18.15;;;3.50;;
73487;SDS011;61721;42.206;25.320;2023-01-19T02:05:00;16.20;;;3.28;;
73487;SDS011;61721;42.206;25.320;2023-01-19T02:07:32;18.15;;;3.20;;
73487;SDS011;61721;42.206;25.320;2023-01-19T02:10:25;18.52;;;3.40;;
73487;SDS011;61721;42.206;25.320;2023-01-19T02:13:10;18.92;;;3.65;;
73487;SDS011;61721;42.206;25.320;2023-01-19T02:15:49;21.92;;;3.97;;
73487;SDS011;61721;42.206;25.320;2023-01-19T02:18:17;16.25;;;3.50;;
73487;SDS011;61721;42.206;25.320;2023-01-19T02:20:47;20.90;;;3.33;;
73487;SDS011;61721;42.206;25.320;2023-01-19T02:23:39;17.73;;;3.17;;
73487;SDS011;61721;42.206;25.320;2023-01-19T02:26:08;19.10;;;3.42;;
73487;SDS011;61721;42.206;25.320;2023-01-19T02:28:37;18.75;;;3.63;;
73487;SDS011;61721;42.206;25.320;2023-01-19T02:33:35;14.48;;;3.38;;
73487;SDS011;61721;42.206;25.320;2023-01-19T02:36:03;20.42;;;3.80;;
73487;SDS011;61721;42.206;25.320;2023-01-19T02:38:32;17.15;;;3.58;;
73487;SDS011;61721;42.206;25.320;2023-01-19T02:41:04;22.05;;;3.92;;
73487;SDS011;61721;42.206;25.320;2023-01-19T02:43:34;25.70;;;4.13;;
73487;SDS011;61721;42.206;25.320;2023-01-19T02:46:03;25.38;;;4.18;;
73487;SDS011;61721;42.206;25.320;2023-01-19T02:48:30;25.25;;;3.75;;
73487;SDS011;61721;42.206;25.320;2023-01-19T02:50:57;23.92;;;3.70;;
73487;SDS011;61721;42.206;25.320;2023-01-19T02:56:50;24.23;;;4.43;;
73487;SDS011;61721;42.206;25.320;2023-01-19T02:59:28;19.50;;;3.42;;
73487;SDS011;61721;42.206;25.320;2023-01-19T03:02:14;27.75;;;4.30;;
73487;SDS011;61721;42.206;25.320;2023-01-19T03:04:53;16.35;;;3.72;;
73487;SDS011;61721;42.206;25.320;2023-01-19T03:07:36;20.95;;;4.07;;
73487;SDS011;61721;42.206;25.320;2023-01-19T03:10:16;26.42;;;3.90;;
73487;SDS011;61721;42.206;25.320;2023-01-19T03:12:51;16.42;;;3.30;;
73487;SDS011;61721;42.206;25.320;2023-01-19T03:15:28;17.95;;;3.35;;
73487;SDS011;61721;42.206;25.320;2023-01-19T03:18:00;21.67;;;3.38;;
73487;SDS011;61721;42.206;25.320;2023-01-19T03:20:31;15.55;;;3.33;;
73487;SDS011;61721;42.206;25.320;2023-01-19T03:22:59;31.50;;;3.97;;
73487;SDS011;61721;42.206;25.320;2023-01-19T03:25:30;22.85;;;3.10;;
73487;SDS011;61721;42.206;25.320;2023-01-19T03:28:02;18.98;;;4.25;;
73487;SDS011;61721;42.206;25.320;2023-01-19T03:30:31;20.88;;;3.75;;
73487;SDS011;61721;42.206;25.320;2023-01-19T03:33:05;19.42;;;3.70;;
73487;SDS011;61721;42.206;25.320;2023-01-19T03:35:37;29.70;;;3.65;;
73487;SDS011;61721;42.206;25.320;2023-01-19T03:38:13;21.48;;;3.63;;
73487;SDS011;61721;42.206;25.320;2023-01-19T03:40:43;21.40;;;3.60;;
73487;SDS011;61721;42.206;25.320;2023-01-19T03:43:14;23.52;;;3.47;;
73487;SDS011;61721;42.206;25.320;2023-01-19T03:45:42;21.42;;;3.58;;
73487;SDS011;61721;42.206;25.320;2023-01-19T03:48:10;28.17;;;3.70;;
73487;SDS011;61721;42.206;25.320;2023-01-19T03:50:38;20.70;;;3.85;;
73487;SDS011;61721;42.206;25.320;2023-01-19T03:53:09;21.95;;;3.67;;
73487;SDS011;61721;42.206;25.320;2023-01-19T03:55:38;24.95;;;3.53;;
73487;SDS011;61721;42.206;25.320;2023-01-19T03:58:06;24.30;;;3.50;;
73487;SDS011;61721;42.206;25.320;2023-01-19T04:00:36;19.30;;;3.33;;
73487;SDS011;61721;42.206;25.320;2023-01-19T04:03:04;24.92;;;3.90;;
73487;SDS011;61721;42.206;25.320;2023-01-19T04:05:37;25.67;;;4.88;;
73487;SDS011;61721;42.206;25.320;2023-01-19T04:08:04;23.65;;;3.50;;
73487;SDS011;61721;42.206;25.320;2023-01-19T04:10:32;22.00;;;4.03;;
73487;SDS011;61721;42.206;25.320;2023-01-19T04:12:59;24.48;;;4.00;;
73487;SDS011;61721;42.206;25.320;2023-01-19T04:15:27;22.00;;;4.03;;
73487;SDS011;61721;42.206;25.320;2023-01-19T04:17:57;28.38;;;4.65;;
73487;SDS011;61721;42.206;25.320;2023-01-19T04:22:52;17.02;;;3.08;;
73487;SDS011;61721;42.206;25.320;2023-01-19T04:25:20;18.83;;;3.75;;
73487;SDS011;61721;42.206;25.320;2023-01-19T04:27:50;20.58;;;3.25;;
73487;SDS011;61721;42.206;25.320;2023-01-19T04:32:44;24.15;;;4.60;;
73487;SDS011;61721;42.206;25.320;2023-01-19T04:35:13;28.02;;;4.13;;
73487;SDS011;61721;42.206;25.320;2023-01-19T04:37:41;18.35;;;3.78;;
73487;SDS011;61721;42.206;25.320;2023-01-19T04:40:09;21.60;;;3.88;;
73487;SDS011;61721;42.206;25.320;2023-01-19T04:42:37;29.65;;;4.22;;
73487;SDS011;61721;42.206;25.320;2023-01-19T04:45:04;26.45;;;4.10;;
73487;SDS011;61721;42.206;25.320;2023-01-19T04:47:32;22.95;;;3.42;;
73487;SDS011;61721;42.206;25.320;2023-01-19T04:49:59;22.92;;;3.78;;
73487;SDS011;61721;42.206;25.320;2023-01-19T04:52:31;31.00;;;4.78;;
73487;SDS011;61721;42.206;25.320;2023-01-19T04:54:59;27.88;;;3.90;;
73487;SDS011;61721;42.206;25.320;2023-01-19T04:57:27;25.75;;;4.95;;
73487;SDS011;61721;42.206;25.320;2023-01-19T04:59:54;19.17;;;3.70;;
73487;SDS011;61721;42.206;25.320;2023-01-19T05:02:28;28.63;;;4.28;;
73487;SDS011;61721;42.206;25.320;2023-01-19T05:04:56;20.23;;;3.83;;
73487;SDS011;61721;42.206;25.320;2023-01-19T05:07:23;20.73;;;3.72;;
73487;SDS011;61721;42.206;25.320;2023-01-19T05:09:51;24.38;;;5.18;;
73487;SDS011;61721;42.206;25.320;2023-01-19T05:12:19;18.08;;;4.03;;
73487;SDS011;61721;42.206;25.320;2023-01-19T05:14:46;30.20;;;4.38;;
73487;SDS011;61721;42.206;25.320;2023-01-19T05:17:13;21.05;;;4.38;;
73487;SDS011;61721;42.206;25.320;2023-01-19T05:19:40;21.30;;;3.83;;
73487;SDS011;61721;42.206;25.320;2023-01-19T05:22:08;19.98;;;5.03;;
73487;SDS011;61721;42.206;25.320;2023-01-19T05:24:35;29.15;;;3.90;;
73487;SDS011;61721;42.206;25.320;2023-01-19T05:27:04;27.35;;;4.05;;
73487;SDS011;61721;42.206;25.320;2023-01-19T05:29:31;30.05;;;3.95;;
73487;SDS011;61721;42.206;25.320;2023-01-19T05:31:58;23.25;;;3.97;;
73487;SDS011;61721;42.206;25.320;2023-01-19T05:34:25;27.55;;;4.03;;
73487;SDS011;61721;42.206;25.320;2023-01-19T05:36:53;26.23;;;4.45;;
73487;SDS011;61721;42.206;25.320;2023-01-19T05:39:20;28.77;;;3.45;;
73487;SDS011;61721;42.206;25.320;2023-01-19T05:41:47;20.00;;;4.47;;
73487;SDS011;61721;42.206;25.320;2023-01-19T05:44:16;19.02;;;3.30;;
73487;SDS011;61721;42.206;25.320;2023-01-19T05:46:43;26.00;;;4.65;;
73487;SDS011;61721;42.206;25.320;2023-01-19T05:49:10;24.92;;;4.22;;
73487;SDS011;61721;42.206;25.320;2023-01-19T05:51:37;25.83;;;3.78;;
73487;SDS011;61721;42.206;25.320;2023-01-19T05:54:10;23.88;;;4.03;;
73487;SDS011;61721;42.206;25.320;2023-01-19T05:56:38;26.13;;;4.68;;
73487;SDS011;61721;42.206;25.320;2023-01-19T05:59:05;25.25;;;4.80;;
73487;SDS011;61721;42.206;25.320;2023-01-19T06:01:34;26.20;;;4.28;;
73487;SDS011;61721;42.206;25.320;2023-01-19T06:04:02;28.08;;;5.38;;
73487;SDS011;61721;42.206;25.320;2023-01-19T06:06:29;26.20;;;5.53;;
73487;SDS011;61721;42.206;25.320;2023-01-19T06:08:57;27.70;;;4.88;;
73487;SDS011;61721;42.206;25.320;2023-01-19T06:11:24;23.40;;;4.53;;
73487;SDS011;61721;42.206;25.320;2023-01-19T06:13:51;24.58;;;4.65;;
73487;SDS011;61721;42.206;25.320;2023-01-19T06:16:18;24.15;;;4.70;;
73487;SDS011;61721;42.206;25.320;2023-01-19T06:18:47;20.15;;;4.88;;
73487;SDS011;61721;42.206;25.320;2023-01-19T06:21:14;21.85;;;4.47;;
73487;SDS011;61721;42.206;25.320;2023-01-19T06:23:41;22.73;;;4.10;;
73487;SDS011;61721;42.206;25.320;2023-01-19T06:26:08;26.70;;;4.43;;
73487;SDS011;61721;42.206;25.320;2023-01-19T06:28:35;25.88;;;5.00;;
73487;SDS011;61721;42.206;25.320;2023-01-19T06:31:02;22.10;;;3.83;;
73487;SDS011;61721;42.206;25.320;2023-01-19T06:33:29;26.33;;;4.38;;
73487;SDS011;61721;42.206;25.320;2023-01-19T06:35:59;22.45;;;4.35;;
73487;SDS011;61721;42.206;25.320;2023-01-19T06:38:26;23.88;;;4.18;;
73487;SDS011;61721;42.206;25.320;2023-01-19T06:40:54;24.95;;;3.88;;
73487;SDS011;61721;42.206;25.320;2023-01-19T06:43:23;31.58;;;3.78;;
73487;SDS011;61721;42.206;25.320;2023-01-19T06:45:51;23.15;;;4.82;;
73487;SDS011;61721;42.206;25.320;2023-01-19T06:48:19;21.60;;;3.85;;
73487;SDS011;61721;42.206;25.320;2023-01-19T06:50:49;27.77;;;4.22;;
73487;SDS011;61721;42.206;25.320;2023-01-19T06:53:18;16.98;;;3.45;;
73487;SDS011;61721;42.206;25.320;2023-01-19T06:55:46;26.77;;;4.40;;
73487;SDS011;61721;42.206;25.320;2023-01-19T06:58:18;21.27;;;4.03;;
73487;SDS011;61721;42.206;25.320;2023-01-19T07:00:45;26.02;;;4.82;;
73487;SDS011;61721;42.206;25.320;2023-01-19T07:03:17;21.45;;;3.97;;
73487;SDS011;61721;42.206;25.320;2023-01-19T07:05:45;30.65;;;5.10;;
73487;SDS011;61721;42.206;25.320;2023-01-19T07:08:14;26.75;;;3.92;;
73487;SDS011;61721;42.206;25.320;2023-01-19T07:10:42;25.13;;;4.70;;
73487;SDS011;61721;42.206;25.320;2023-01-19T07:13:10;26.80;;;4.38;;
73487;SDS011;61721;42.206;25.320;2023-01-19T07:15:37;37.22;;;5.57;;
73487;SDS011;61721;42.206;25.320;2023-01-19T07:18:04;21.88;;;4.60;;
73487;SDS011;61721;42.206;25.320;2023-01-19T07:20:32;24.55;;;4.30;;
73487;SDS011;61721;42.206;25.320;2023-01-19T07:22:59;20.23;;;4.05;;
73487;SDS011;61721;42.206;25.320;2023-01-19T07:25:27;27.80;;;4.25;;
73487;SDS011;61721;42.206;25.320;2023-01-19T07:27:57;23.55;;;4.43;;
73487;SDS011;61721;42.206;25.320;2023-01-19T07:30:29;22.58;;;4.03;;
73487;SDS011;61721;42.206;25.320;2023-01-19T07:32:56;23.20;;;4.80;;
73487;SDS011;61721;42.206;25.320;2023-01-19T07:35:27;18.90;;;4.00;;
73487;SDS011;61721;42.206;25.320;2023-01-19T07:37:55;24.15;;;4.40;;
73487;SDS011;61721;42.206;25.320;2023-01-19T07:40:22;26.38;;;4.68;;
73487;SDS011;61721;42.206;25.320;2023-01-19T07:42:49;28.27;;;4.18;;
73487;SDS011;61721;42.206;25.320;2023-01-19T07:45:18;30.45;;;4.90;;
73487;SDS011;61721;42.206;25.320;2023-01-19T07:47:46;21.70;;;3.65;;
73487;SDS011;61721;42.206;25.320;2023-01-19T07:50:15;31.10;;;5.03;;
73487;SDS011;61721;42.206;25.320;2023-01-19T07:52:45;24.85;;;4.65;;
73487;SDS011;61721;42.206;25.320;2023-01-19T07:55:14;25.83;;;3.72;;
73487;SDS011;61721;42.206;25.320;2023-01-19T07:57:42;29.63;;;4.25;;
73487;SDS011;61721;42.206;25.320;2023-01-19T08:00:09;18.17;;;3.33;;
73487;SDS011;61721;42.206;25.320;2023-01-19T08:02:40;24.63;;;4.20;;
73487;SDS011;61721;42.206;25.320;2023-01-19T08:05:07;28.15;;;3.72;;
73487;SDS011;61721;42.206;25.320;2023-01-19T08:07:34;23.83;;;3.63;;
73487;SDS011;61721;42.206;25.320;2023-01-19T08:10:02;29.20;;;3.97;;
73487;SDS011;61721;42.206;25.320;2023-01-19T08:12:29;28.42;;;3.85;;
73487;SDS011;61721;42.206;25.320;2023-01-19T08:14:56;20.55;;;3.92;;
73487;SDS011;61721;42.206;25.320;2023-01-19T08:17:26;30.63;;;3.88;;
73487;SDS011;61721;42.206;25.320;2023-01-19T08:19:54;23.25;;;4.72;;
73487;SDS011;61721;42.206;25.320;2023-01-19T08:22:21;27.80;;;4.03;;
73487;SDS011;61721;42.206;25.320;2023-01-19T08:24:56;25.88;;;3.50;;
73487;SDS011;61721;42.206;25.320;2023-01-19T08:27:24;22.45;;;3.40;;
73487;SDS011;61721;42.206;25.320;2023-01-19T08:29:51;21.77;;;3.65;;
73487;SDS011;61721;42.206;25.320;2023-01-19T08:32:19;27.63;;;4.00;;
73487;SDS011;61721;42.206;25.320;2023-01-19T08:34:46;25.58;;;3.80;;
73487;SDS011;61721;42.206;25.320;2023-01-19T08:37:14;29.13;;;4.47;;
73487;SDS011;61721;42.206;25.320;2023-01-19T08:39:41;28.10;;;4.13;;
73487;SDS011;61721;42.206;25.320;2023-01-19T08:42:08;28.10;;;4.03;;
73487;SDS011;61721;42.206;25.320;2023-01-19T08:44:36;28.27;;;4.07;;
73487;SDS011;61721;42.206;25.320;2023-01-19T08:47:03;21.92;;;3.40;;
73487;SDS011;61721;42.206;25.320;2023-01-19T08:49:30;19.92;;;3.38;;
73487;SDS011;61721;42.206;25.320;2023-01-19T08:51:57;21.67;;;3.63;;
73487;SDS011;61721;42.206;25.320;2023-01-19T08:54:25;23.42;;;4.43;;
73487;SDS011;61721;42.206;25.320;2023-01-19T08:56:52;24.00;;;4.18;;
73487;SDS011;61721;42.206;25.320;2023-01-19T08:59:19;27.98;;;4.32;;
73487;SDS011;61721;42.206;25.320;2023-01-19T09:01:50;23.88;;;3.40;;
73487;SDS011;61721;42.206;25.320;2023-01-19T09:04:17;27.38;;;4.00;;
73487;SDS011;61721;42.206;25.320;2023-01-19T09:06:46;18.83;;;3.38;;
73487;SDS011;61721;42.206;25.320;2023-01-19T09:09:13;26.83;;;3.85;;
73487;SDS011;61721;42.206;25.320;2023-01-19T09:11:41;23.83;;;3.22;;
73487;SDS011;61721;42.206;25.320;2023-01-19T09:14:13;27.02;;;3.30;;
73487;SDS011;61721;42.206;25.320;2023-01-19T09:16:46;21.88;;;3.58;;
73487;SDS011;61721;42.206;25.320;2023-01-19T09:19:13;26.23;;;4.20;;
73487;SDS011;61721;42.206;25.320;2023-01-19T09:21:40;25.98;;;3.35;;
73487;SDS011;61721;42.206;25.320;2023-01-19T09:24:07;24.38;;;4.10;;
73487;SDS011;61721;42.206;25.320;2023-01-19T09:26:34;20.27;;;3.55;;
73487;SDS011;61721;42.206;25.320;2023-01-19T09:29:06;20.95;;;3.28;;
73487;SDS011;61721;42.206;25.320;2023-01-19T09:31:33;25.75;;;3.22;;
73487;SDS011;61721;42.206;25.320;2023-01-19T09:34:00;23.25;;;3.67;;
73487;SDS011;61721;42.206;25.320;2023-01-19T09:36:33;24.92;;;3.63;;
73487;SDS011;61721;42.206;25.320;2023-01-19T09:39:02;24.73;;;3.65;;
73487;SDS011;61721;42.206;25.320;2023-01-19T09:41:29;22.23;;;3.88;;
73487;SDS011;61721;42.206;25.320;2023-01-19T09:44:00;18.98;;;3.58;;
73487;SDS011;61721;42.206;25.320;2023-01-19T09:46:32;22.33;;;3.10;;
73487;SDS011;61721;42.206;25.320;2023-01-19T09:49:03;18.05;;;3.60;;
73487;SDS011;61721;42.206;25.320;2023-01-19T09:51:38;17.27;;;2.80;;
73487;SDS011;61721;42.206;25.320;2023-01-19T09:54:09;20.17;;;3.25;;
73487;SDS011;61721;42.206;25.320;2023-01-19T09:56:40;18.85;;;2.83;;
73487;SDS011;61721;42.206;25.320;2023-01-19T09:59:16;22.88;;;4.13;;
73487;SDS011;61721;42.206;25.320;2023-01-19T10:01:51;19.45;;;3.10;;
73487;SDS011;61721;42.206;25.320;2023-01-19T10:04:30;14.98;;;3.53;;
73487;SDS011;61721;42.206;25.320;2023-01-19T10:10:06;16.02;;;2.95;;
73487;SDS011;61721;42.206;25.320;2023-01-19T10:12:42;22.05;;;3.30;;
73487;SDS011;61721;42.206;25.320;2023-01-19T10:15:20;18.02;;;2.80;;
73487;SDS011;61721;42.206;25.320;2023-01-19T10:18:02;25.10;;;5.65;;
73487;SDS011;61721;42.206;25.320;2023-01-19T10:20:43;21.20;;;6.47;;
73487;SDS011;61721;42.206;25.320;2023-01-19T10:23:18;16.67;;;3.08;;
73487;SDS011;61721;42.206;25.320;2023-01-19T10:25:55;19.80;;;3.45;;
73487;SDS011;61721;42.206;25.320;2023-01-19T10:28:25;14.57;;;2.85;;
73487;SDS011;61721;42.206;25.320;2023-01-19T10:30:53;14.30;;;3.58;;
73487;SDS011;61721;42.206;25.320;2023-01-19T10:33:22;20.48;;;3.17;;
73487;SDS011;61721;42.206;25.320;2023-01-19T10:35:50;17.25;;;2.90;;
73487;SDS011;61721;42.206;25.320;2023-01-19T10:38:17;21.90;;;3.45;;
73487;SDS011;61721;42.206;25.320;2023-01-19T10:40:48;14.93;;;2.80;;
73487;SDS011;61721;42.206;25.320;2023-01-19T10:48:58;16.65;;;3.10;;
73487;SDS011;61721;42.206;25.320;2023-01-19T10:51:26;17.70;;;3.10;;
73487;SDS011;61721;42.206;25.320;2023-01-19T10:53:54;17.88;;;3.10;;
73487;SDS011;61721;42.206;25.320;2023-01-19T10:56:24;14.15;;;2.88;;
73487;SDS011;61721;42.206;25.320;2023-01-19T10:58:53;13.32;;;2.83;;
73487;SDS011;61721;42.206;25.320;2023-01-19T11:01:22;14.65;;;2.88;;
73487;SDS011;61721;42.206;25.320;2023-01-19T11:03:50;15.52;;;2.75;;
73487;SDS011;61721;42.206;25.320;2023-01-19T11:06:23;14.63;;;2.58;;
73487;SDS011;61721;42.206;25.320;2023-01-19T11:08:58;14.25;;;2.40;;
73487;SDS011;61721;42.206;25.320;2023-01-19T11:11:45;10.52;;;2.80;;
73487;SDS011;61721;42.206;25.320;2023-01-19T11:14:16;16.63;;;3.10;;
73487;SDS011;61721;42.206;25.320;2023-01-19T11:16:46;14.50;;;2.83;;
73487;SDS011;61721;42.206;25.320;2023-01-19T11:19:18;13.52;;;2.70;;
73487;SDS011;61721;42.206;25.320;2023-01-19T11:21:51;16.33;;;3.17;;
73487;SDS011;61721;42.206;25.320;2023-01-19T11:24:19;15.85;;;3.55;;
73487;SDS011;61721;42.206;25.320;2023-01-19T11:26:47;12.48;;;2.90;;
73487;SDS011;61721;42.206;25.320;2023-01-19T11:29:16;15.50;;;2.70;;
73487;SDS011;61721;42.206;25.320;2023-01-19T11:31:47;12.73;;;2.95;;
73487;SDS011;61721;42.206;25.320;2023-01-19T11:34:25;18.83;;;2.50;;
73487;SDS011;61721;42.206;25.320;2023-01-19T11:36:59;14.77;;;2.80;;
73487;SDS011;61721;42.206;25.320;2023-01-19T11:39:29;16.45;;;3.28;;
73487;SDS011;61721;42.206;25.320;2023-01-19T11:41:58;17.52;;;3.15;;
73487;SDS011;61721;42.206;25.320;2023-01-19T11:44:29;15.73;;;2.60;;
73487;SDS011;61721;42.206;25.320;2023-01-19T11:47:03;12.90;;;3.00;;
73487;SDS011;61721;42.206;25.320;2023-01-19T11:49:39;17.95;;;3.38;;
73487;SDS011;61721;42.206;25.320;2023-01-19T11:52:18;16.85;;;3.55;;
73487;SDS011;61721;42.206;25.320;2023-01-19T11:54:53;12.48;;;3.40;;
73487;SDS011;61721;42.206;25.320;2023-01-19T11:57:23;13.52;;;3.40;;
73487;SDS011;61721;42.206;25.320;2023-01-19T11:59:51;20.17;;;3.33;;
73487;SDS011;61721;42.206;25.320;2023-01-19T12:02:21;12.05;;;3.20;;
73487;SDS011;61721;42.206;25.320;2023-01-19T12:04:53;16.67;;;3.30;;
73487;SDS011;61721;42.206;25.320;2023-01-19T12:07:27;15.13;;;3.25;;
73487;SDS011;61721;42.206;25.320;2023-01-19T12:09:58;14.93;;;3.42;;
73487;SDS011;61721;42.206;25.320;2023-01-19T12:12:39;12.68;;;2.45;;
73487;SDS011;61721;42.206;25.320;2023-01-19T12:15:07;12.25;;;2.50;;
73487;SDS011;61721;42.206;25.320;2023-01-19T12:17:47;15.95;;;2.42;;
73487;SDS011;61721;42.206;25.320;2023-01-19T12:20:22;13.85;;;2.35;;
73487;SDS011;61721;42.206;25.320;2023-01-19T12:22:56;10.77;;;2.30;;
73487;SDS011;61721;42.206;25.320;2023-01-19T12:25:31;14.05;;;2.30;;
73487;SDS011;61721;42.206;25.320;2023-01-19T12:28:11;13.77;;;2.80;;
73487;SDS011;61721;42.206;25.320;2023-01-19T12:30:41;13.60;;;2.47;;
73487;SDS011;61721;42.206;25.320;2023-01-19T12:36:03;10.43;;;2.10;;
73487;SDS011;61721;42.206;25.320;2023-01-19T12:38:38;8.40;;;2.10;;
73487;SDS011;61721;42.206;25.320;2023-01-19T12:46:55;10.43;;;2.08;;
73487;SDS011;61721;42.206;25.320;2023-01-19T12:49:29;11.82;;;2.45;;
73487;SDS011;61721;42.206;25.320;2023-01-19T12:52:19;11.77;;;2.75;;
73487;SDS011;61721;42.206;25.320;2023-01-19T12:54:56;11.18;;;2.42;;
73487;SDS011;61721;42.206;25.320;2023-01-19T12:59:57;10.88;;;2.67;;
73487;SDS011;61721;42.206;25.320;2023-01-19T13:05:22;8.98;;;2.15;;
73487;SDS011;61721;42.206;25.320;2023-01-19T13:08:15;12.18;;;2.10;;
73487;SDS011;61721;42.206;25.320;2023-01-19T13:16:59;10.80;;;2.13;;
73487;SDS011;61721;42.206;25.320;2023-01-19T13:25:27;6.68;;;1.65;;
73487;SDS011;61721;42.206;25.320;2023-01-19T13:27:59;12.27;;;1.98;;
73487;SDS011;61721;42.206;25.320;2023-01-19T13:30:32;7.72;;;1.75;;
73487;SDS011;61721;42.206;25.320;2023-01-19T13:33:02;10.50;;;1.88;;
73487;SDS011;61721;42.206;25.320;2023-01-19T13:38:06;10.75;;;2.10;;
73487;SDS011;61721;42.206;25.320;2023-01-19T13:40:39;8.98;;;2.40;;
73487;SDS011;61721;42.206;25.320;2023-01-19T13:43:12;8.02;;;2.10;;
73487;SDS011;61721;42.206;25.320;2023-01-19T13:45:49;11.20;;;2.60;;
73487;SDS011;61721;42.206;25.320;2023-01-19T13:48:17;7.50;;;2.20;;
73487;SDS011;61721;42.206;25.320;2023-01-19T13:50:58;9.50;;;2.00;;
73487;SDS011;61721;42.206;25.320;2023-01-19T13:53:28;9.55;;;2.15;;
73487;SDS011;61721;42.206;25.320;2023-01-19T13:58:36;6.47;;;1.70;;
73487;SDS011;61721;42.206;25.320;2023-01-19T14:01:03;6.53;;;1.60;;
73487;SDS011;61721;42.206;25.320;2023-01-19T14:03:32;10.80;;;1.95;;
73487;SDS011;61721;42.206;25.320;2023-01-19T14:05:59;5.85;;;1.35;;
73487;SDS011;61721;42.206;25.320;2023-01-19T14:08:27;10.35;;;1.98;;
73487;SDS011;61721;42.206;25.320;2023-01-19T14:11:00;7.72;;;1.55;;
73487;SDS011;61721;42.206;25.320;2023-01-19T14:13:28;7.10;;;1.70;;
73487;SDS011;61721;42.206;25.320;2023-01-19T14:16:00;9.20;;;1.48;;
73487;SDS011;61721;42.206;25.320;2023-01-19T14:18:30;9.02;;;1.70;;
73487;SDS011;61721;42.206;25.320;2023-01-19T14:20:59;7.15;;;1.45;;
73487;SDS011;61721;42.206;25.320;2023-01-19T14:23:41;8.23;;;1.88;;
73487;SDS011;61721;42.206;25.320;2023-01-19T14:29:15;8.18;;;1.50;;
73487;SDS011;61721;42.206;25.320;2023-01-19T14:31:47;9.02;;;2.53;;
73487;SDS011;61721;42.206;25.320;2023-01-19T14:37:12;9.65;;;3.15;;
73487;SDS011;61721;42.206;25.320;2023-01-19T14:39:45;9.82;;;3.05;;
73487;SDS011;61721;42.206;25.320;2023-01-19T14:42:19;9.90;;;2.15;;
73487;SDS011;61721;42.206;25.320;2023-01-19T14:44:50;7.80;;;2.40;;
73487;SDS011;61721;42.206;25.320;2023-01-19T14:47:24;7.65;;;1.90;;
73487;SDS011;61721;42.206;25.320;2023-01-19T14:49:58;10.70;;;2.10;;
73487;SDS011;61721;42.206;25.320;2023-01-19T14:52:33;8.55;;;1.75;;
73487;SDS011;61721;42.206;25.320;2023-01-19T14:55:04;8.95;;;2.20;;
73487;SDS011;61721;42.206;25.320;2023-01-19T14:57:34;12.18;;;2.42;;
73487;SDS011;61721;42.206;25.320;2023-01-19T15:00:08;5.88;;;1.60;;
73487;SDS011;61721;42.206;25.320;2023-01-19T15:02:41;10.05;;;2.50;;
73487;SDS011;61721;42.206;25.320;2023-01-19T15:05:09;7.57;;;2.38;;
73487;SDS011;61721;42.206;25.320;2023-01-19T15:07:36;11.02;;;2.03;;
73487;SDS011;61721;42.206;25.320;2023-01-19T15:12:37;10.95;;;2.30;;
73487;SDS011;61721;42.206;25.320;2023-01-19T15:15:05;9.98;;;2.22;;
73487;SDS011;61721;42.206;25.320;2023-01-19T15:17:38;8.57;;;2.00;;
73487;SDS011;61721;42.206;25.320;2023-01-19T15:20:08;9.13;;;2.22;;
73487;SDS011;61721;42.206;25.320;2023-01-19T15:22:39;9.23;;;2.20;;
73487;SDS011;61721;42.206;25.320;2023-01-19T15:25:07;11.38;;;2.22;;
73487;SDS011;61721;42.206;25.320;2023-01-19T15:27:37;7.82;;;2.40;;
73487;SDS011;61721;42.206;25.320;2023-01-19T15:30:07;12.80;;;3.25;;
73487;SDS011;61721;42.206;25.320;2023-01-19T15:32:40;10.02;;;2.28;;
73487;SDS011;61721;42.206;25.320;2023-01-19T15:35:13;11.07;;;2.38;;
73487;SDS011;61721;42.206;25.320;2023-01-19T15:37:41;9.23;;;2.50;;
73487;SDS011;61721;42.206;25.320;2023-01-19T15:40:09;9.88;;;2.53;;
73487;SDS011;61721;42.206;25.320;2023-01-19T15:42:36;11.88;;;2.92;;